createdAt,value
2018-12-24T00:00:08.937Z,6.14
2018-12-24T00:01:08.903Z,6.14
2018-12-24T00:02:08.871Z,6.18
2018-12-24T00:03:08.838Z,6.12
2018-12-24T00:04:08.806Z,6.18
2018-12-24T00:05:08.771Z,6.14
2018-12-24T00:06:08.741Z,6.15
2018-12-24T00:07:08.709Z,6.19
2018-12-24T00:08:08.671Z,6.09
2018-12-24T00:09:08.638Z,6.18
2018-12-24T00:10:08.604Z,6.14
2018-12-24T00:11:08.571Z,6.17
2018-12-24T00:12:08.539Z,6.17
2018-12-24T00:13:08.504Z,6.15
2018-12-24T00:14:08.472Z,6.01
2018-12-24T00:15:08.439Z,6.03
2018-12-24T00:16:08.406Z,5.99
2018-12-24T00:17:08.372Z,6.00
2018-12-24T00:18:08.340Z,6.03
2018-12-24T00:19:08.306Z,6.00
2018-12-24T00:20:08.272Z,6.06
2018-12-24T00:21:08.238Z,5.94
2018-12-24T00:22:08.206Z,5.97
2018-12-24T00:23:08.176Z,5.97
2018-12-24T00:24:08.139Z,5.89
2018-12-24T00:25:08.105Z,5.91
2018-12-24T00:26:08.072Z,5.85
2018-12-24T00:27:08.039Z,5.89
2018-12-24T00:28:08.005Z,5.89
2018-12-24T00:29:07.972Z,5.85
2018-12-24T00:30:07.939Z,5.89
2018-12-24T00:31:07.908Z,5.82
2018-12-24T00:32:07.871Z,5.74
2018-12-24T00:33:07.840Z,5.74
2018-12-24T00:34:07.806Z,5.79
2018-12-24T00:35:07.772Z,5.79
2018-12-24T00:36:07.738Z,5.78
2018-12-24T00:37:07.706Z,5.74
2018-12-24T00:38:07.672Z,5.74
2018-12-24T00:39:07.640Z,5.72
2018-12-24T00:40:07.607Z,5.71
2018-12-24T00:41:07.572Z,5.72
2018-12-24T00:42:15.662Z,5.68
2018-12-24T00:43:07.506Z,5.65
2018-12-24T00:44:07.471Z,5.71
2018-12-24T00:45:07.439Z,5.68
2018-12-24T00:46:07.406Z,5.65
2018-12-24T00:47:07.373Z,5.63
2018-12-24T00:48:07.349Z,5.64
2018-12-24T00:49:07.304Z,5.63
2018-12-24T00:50:07.272Z,5.54
2018-12-24T00:51:07.239Z,5.56
2018-12-24T00:52:07.207Z,5.48
2018-12-24T00:53:07.172Z,5.54
2018-12-24T00:54:07.138Z,5.58
2018-12-24T00:55:07.105Z,5.56
2018-12-24T00:56:07.070Z,5.54
2018-12-24T00:57:07.036Z,5.63
2018-12-24T00:58:07.007Z,5.58
2018-12-24T00:59:06.974Z,5.51
2018-12-24T01:00:06.939Z,5.53
2018-12-24T01:01:06.905Z,5.46
2018-12-24T01:02:06.869Z,5.46
2018-12-24T01:03:06.837Z,5.51
2018-12-24T01:04:06.802Z,5.46
2018-12-24T01:05:06.768Z,5.48
2018-12-24T01:06:06.738Z,5.49
2018-12-24T01:07:06.700Z,5.48
2018-12-24T01:08:06.670Z,5.40
2018-12-24T01:09:06.636Z,5.43
2018-12-24T01:10:06.601Z,5.38
2018-12-24T01:11:06.567Z,5.38
2018-12-24T01:12:06.535Z,5.28
2018-12-24T01:13:06.499Z,5.27
2018-12-24T01:14:06.465Z,5.27
2018-12-24T01:15:06.433Z,5.30
2018-12-24T01:16:06.399Z,5.22
2018-12-24T01:17:06.365Z,5.25
2018-12-24T01:18:06.333Z,5.24
2018-12-24T01:19:06.297Z,5.27
2018-12-24T01:20:06.262Z,5.25
2018-12-24T01:21:06.229Z,5.22
2018-12-24T01:22:06.195Z,5.18
2018-12-24T01:23:06.165Z,5.17
2018-12-24T01:24:06.127Z,5.17
2018-12-24T01:25:06.094Z,5.18
2018-12-24T01:26:06.060Z,5.13
2018-12-24T01:27:06.026Z,5.21
2018-12-24T01:28:05.992Z,5.22
2018-12-24T01:29:05.958Z,5.17
2018-12-24T01:30:05.928Z,5.18
2018-12-24T01:31:05.892Z,5.10
2018-12-24T01:32:05.857Z,5.18
2018-12-24T01:33:05.823Z,5.10
2018-12-24T01:34:05.789Z,5.07
2018-12-24T01:35:05.756Z,5.10
2018-12-24T01:36:05.720Z,5.09
2018-12-24T01:37:05.688Z,5.00
2018-12-24T01:38:05.654Z,4.94
2018-12-24T01:39:05.619Z,5.00
2018-12-24T01:40:05.587Z,4.94
2018-12-24T01:41:05.556Z,4.89
2018-12-24T01:42:05.518Z,4.82
2018-12-24T01:43:05.484Z,4.92
2018-12-24T01:44:05.449Z,4.86
2018-12-24T01:45:05.415Z,4.86
2018-12-24T01:46:05.381Z,4.85
2018-12-24T01:47:05.346Z,4.85
2018-12-24T01:48:05.312Z,4.78
2018-12-24T01:49:05.279Z,4.84
2018-12-24T01:50:05.244Z,4.78
2018-12-24T01:51:05.211Z,4.80
2018-12-24T01:52:05.179Z,4.86
2018-12-24T01:53:05.143Z,4.78
2018-12-24T01:54:05.109Z,4.78
2018-12-24T01:55:05.074Z,4.78
2018-12-24T01:56:05.040Z,4.84
2018-12-24T01:57:05.006Z,4.82
2018-12-24T01:58:04.972Z,4.86
2018-12-24T01:59:04.938Z,4.78
2018-12-24T02:00:04.903Z,4.80
2018-12-24T02:01:04.869Z,4.84
2018-12-24T02:02:04.908Z,4.73
2018-12-24T02:03:04.802Z,4.77
2018-12-24T02:04:04.767Z,4.77
2018-12-24T02:05:04.733Z,4.70
2018-12-24T02:06:04.699Z,4.67
2018-12-24T02:07:04.664Z,4.69
2018-12-24T02:08:04.631Z,4.72
2018-12-24T02:09:04.599Z,4.67
2018-12-24T02:10:04.566Z,4.69
2018-12-24T02:11:04.531Z,4.69
2018-12-24T02:12:04.494Z,4.60
2018-12-24T02:13:04.460Z,4.72
2018-12-24T02:14:04.426Z,4.69
2018-12-24T02:15:04.393Z,4.73
2018-12-24T02:16:04.357Z,4.60
2018-12-24T02:17:04.325Z,4.63
2018-12-24T02:18:04.289Z,4.50
2018-12-24T02:19:04.256Z,4.54
2018-12-24T02:20:04.221Z,4.62
2018-12-24T02:21:04.186Z,4.50
2018-12-24T02:22:12.646Z,4.54
2018-12-24T02:23:04.118Z,4.51
2018-12-24T02:24:04.083Z,4.51
2018-12-24T02:25:04.050Z,4.54
2018-12-24T02:26:04.016Z,4.44
2018-12-24T02:27:03.983Z,4.42
2018-12-24T02:28:03.947Z,4.45
2018-12-24T02:29:03.912Z,4.40
2018-12-24T02:30:03.905Z,4.40
2018-12-24T02:31:03.847Z,4.42
2018-12-24T02:32:03.822Z,4.44
2018-12-24T02:33:03.775Z,4.42
2018-12-24T02:34:03.744Z,4.41
2018-12-24T02:35:03.706Z,4.41
2018-12-24T02:36:03.672Z,4.47
2018-12-24T02:37:03.639Z,4.42
2018-12-24T02:38:03.604Z,4.32
2018-12-24T02:39:03.568Z,4.27
2018-12-24T02:40:03.535Z,4.37
2018-12-24T02:41:03.499Z,4.40
2018-12-24T02:42:03.465Z,4.34
2018-12-24T02:43:03.431Z,4.33
2018-12-24T02:44:03.399Z,4.32
2018-12-24T02:45:03.363Z,4.22
2018-12-24T02:46:03.329Z,4.27
2018-12-24T02:47:03.296Z,4.29
2018-12-24T02:48:03.258Z,4.26
2018-12-24T02:49:03.225Z,4.30
2018-12-24T02:50:03.192Z,4.26
2018-12-24T02:51:03.156Z,4.27
2018-12-24T02:52:03.123Z,4.27
2018-12-24T02:53:03.088Z,4.26
2018-12-24T02:54:03.052Z,4.20
2018-12-24T02:55:03.019Z,4.23
2018-12-24T02:56:02.984Z,4.23
2018-12-24T02:57:03.057Z,4.23
2018-12-24T02:58:02.915Z,4.24
2018-12-24T02:59:02.882Z,4.22
2018-12-24T03:00:02.855Z,4.11
2018-12-24T03:01:02.811Z,4.14
2018-12-24T03:02:02.785Z,4.09
2018-12-24T03:03:02.746Z,4.06
2018-12-24T03:04:02.713Z,4.08
2018-12-24T03:05:02.684Z,4.14
2018-12-24T03:06:02.641Z,4.11
2018-12-24T03:07:02.605Z,4.16
2018-12-24T03:08:02.570Z,4.11
2018-12-24T03:09:02.536Z,4.15
2018-12-24T03:10:02.504Z,4.14
2018-12-24T03:11:02.467Z,4.20
2018-12-24T03:12:02.463Z,4.15
2018-12-24T03:13:03.263Z,4.06
2018-12-24T03:14:02.366Z,4.08
2018-12-24T03:15:02.331Z,4.14
2018-12-24T03:16:02.296Z,4.20
2018-12-24T03:17:02.260Z,4.16
2018-12-24T03:18:02.227Z,4.05
2018-12-24T03:19:02.194Z,4.08
2018-12-24T03:20:02.156Z,4.11
2018-12-24T03:21:02.123Z,4.05
2018-12-24T03:22:02.095Z,4.06
2018-12-24T03:23:02.056Z,3.97
2018-12-24T03:24:02.021Z,4.15
2018-12-24T03:25:01.986Z,3.97
2018-12-24T03:26:01.952Z,4.08
2018-12-24T03:27:01.919Z,4.04
2018-12-24T03:28:01.882Z,3.98
2018-12-24T03:29:01.846Z,4.00
2018-12-24T03:30:01.814Z,4.08
2018-12-24T03:31:01.780Z,4.05
2018-12-24T03:32:01.773Z,4.05
2018-12-24T03:33:01.734Z,4.04
2018-12-24T03:34:01.685Z,4.02
2018-12-24T03:35:01.658Z,4.05
2018-12-24T03:36:01.609Z,4.05
2018-12-24T03:37:01.576Z,4.05
2018-12-24T03:38:01.534Z,4.02
2018-12-24T03:39:01.502Z,4.00
2018-12-24T03:40:01.470Z,4.04
2018-12-24T03:41:01.431Z,3.98
2018-12-24T03:42:01.396Z,4.02
2018-12-24T03:43:01.361Z,4.00
2018-12-24T03:44:01.326Z,4.00
2018-12-24T03:45:01.291Z,3.98
2018-12-24T03:46:01.260Z,4.06
2018-12-24T03:47:01.225Z,4.04
2018-12-24T03:48:01.191Z,4.04
2018-12-24T03:49:01.154Z,4.05
2018-12-24T03:50:01.130Z,3.98
2018-12-24T03:51:01.085Z,3.94
2018-12-24T03:52:01.051Z,3.98
2018-12-24T03:53:01.015Z,3.97
2018-12-24T03:54:00.982Z,3.98
2018-12-24T03:55:00.947Z,3.96
2018-12-24T03:56:00.915Z,3.94
2018-12-24T03:57:00.877Z,4.00
2018-12-24T03:58:00.844Z,4.02
2018-12-24T03:59:00.809Z,3.97
2018-12-24T04:00:00.784Z,3.97
2018-12-24T04:01:00.740Z,3.93
2018-12-24T04:02:00.703Z,3.98
2018-12-24T04:03:00.669Z,4.00
2018-12-24T04:04:00.635Z,4.04
2018-12-24T04:05:00.601Z,4.00
2018-12-24T04:06:00.567Z,3.94
2018-12-24T04:07:00.531Z,3.97
2018-12-24T04:08:00.509Z,3.97
2018-12-24T04:09:00.462Z,3.93
2018-12-24T04:10:00.429Z,3.96
2018-12-24T04:11:00.393Z,3.98
2018-12-24T04:12:00.358Z,3.97
2018-12-24T04:13:00.325Z,4.02
2018-12-24T04:14:00.289Z,4.00
2018-12-24T04:15:00.308Z,3.93
2018-12-24T04:16:00.217Z,3.97
2018-12-24T04:17:00.185Z,3.94
2018-12-24T04:18:00.151Z,4.00
2018-12-24T04:19:00.117Z,3.83
2018-12-24T04:20:00.086Z,3.83
2018-12-24T04:21:00.045Z,3.97
2018-12-24T04:22:00.011Z,3.87
2018-12-24T04:22:59.996Z,3.86
2018-12-24T04:23:59.960Z,3.80
2018-12-24T04:24:59.910Z,3.90
2018-12-24T04:25:59.874Z,3.87
2018-12-24T04:26:59.843Z,3.83
2018-12-24T04:27:59.806Z,3.87
2018-12-24T04:28:59.768Z,3.76
2018-12-24T04:29:59.734Z,3.80
2018-12-24T04:30:59.699Z,3.80
2018-12-24T04:31:59.665Z,3.80
2018-12-24T04:32:59.631Z,3.78
2018-12-24T04:33:59.596Z,3.72
2018-12-24T04:34:59.560Z,3.72
2018-12-24T04:35:59.526Z,3.76
2018-12-24T04:36:59.490Z,3.70
2018-12-24T04:37:59.455Z,3.72
2018-12-24T04:38:59.424Z,3.76
2018-12-24T04:39:59.386Z,3.72
2018-12-24T04:40:59.352Z,3.73
2018-12-24T04:41:59.319Z,3.68
2018-12-24T04:42:59.283Z,3.79
2018-12-24T04:43:59.404Z,3.68
2018-12-24T04:44:59.213Z,3.72
2018-12-24T04:45:59.178Z,3.76
2018-12-24T04:46:59.145Z,3.68
2018-12-24T04:47:59.109Z,3.58
2018-12-24T04:48:59.076Z,3.61
2018-12-24T04:49:59.039Z,3.65
2018-12-24T04:50:59.006Z,3.60
2018-12-24T04:51:58.973Z,3.65
2018-12-24T04:52:58.935Z,3.65
2018-12-24T04:53:58.900Z,3.68
2018-12-24T04:54:58.867Z,3.54
2018-12-24T04:55:58.831Z,3.61
2018-12-24T04:56:58.799Z,3.60
2018-12-24T04:57:58.761Z,3.65
2018-12-24T04:58:58.728Z,3.60
2018-12-24T04:59:58.692Z,3.58
2018-12-24T05:00:58.659Z,3.61
2018-12-24T05:01:58.621Z,3.61
2018-12-24T05:02:58.587Z,3.65
2018-12-24T05:03:58.553Z,3.58
2018-12-24T05:04:58.517Z,3.57
2018-12-24T05:05:58.483Z,3.61
2018-12-24T05:06:58.449Z,3.55
2018-12-24T05:07:58.413Z,3.60
2018-12-24T05:08:58.379Z,3.62
2018-12-24T05:09:58.345Z,3.61
2018-12-24T05:10:58.309Z,3.54
2018-12-24T05:11:58.274Z,3.55
2018-12-24T05:12:58.241Z,3.51
2018-12-24T05:13:58.205Z,3.55
2018-12-24T05:14:58.173Z,3.42
2018-12-24T05:15:58.134Z,3.43
2018-12-24T05:16:58.100Z,3.33
2018-12-24T05:17:58.066Z,3.32
2018-12-24T05:18:58.032Z,3.35
2018-12-24T05:19:57.995Z,3.24
2018-12-24T05:20:57.960Z,3.26
2018-12-24T05:21:57.926Z,3.24
2018-12-24T05:22:57.890Z,3.28
2018-12-24T05:23:57.855Z,3.20
2018-12-24T05:24:57.821Z,3.24
2018-12-24T05:25:57.786Z,3.23
2018-12-24T05:26:57.751Z,3.13
2018-12-24T05:27:57.714Z,3.18
2018-12-24T05:28:57.680Z,3.18
2018-12-24T05:29:57.647Z,3.23
2018-12-24T05:30:57.610Z,3.13
2018-12-24T05:31:57.573Z,3.13
2018-12-24T05:32:57.540Z,3.11
2018-12-24T05:33:57.505Z,3.02
2018-12-24T05:34:57.470Z,3.05
2018-12-24T05:35:57.435Z,2.97
2018-12-24T05:36:57.400Z,2.92
2018-12-24T05:37:57.366Z,2.85
2018-12-24T05:38:57.330Z,2.90
2018-12-24T05:39:57.296Z,2.90
2018-12-24T05:40:57.259Z,2.90
2018-12-24T05:41:57.228Z,2.92
2018-12-24T05:42:57.191Z,2.89
2018-12-24T05:43:57.153Z,2.82
2018-12-24T05:44:57.124Z,2.77
2018-12-24T05:45:57.084Z,2.87
2018-12-24T05:46:57.050Z,2.77
2018-12-24T05:47:57.016Z,2.74
2018-12-24T05:48:56.978Z,2.72
2018-12-24T05:49:56.944Z,2.60
2018-12-24T05:50:56.908Z,2.52
2018-12-24T05:51:56.873Z,2.57
2018-12-24T05:52:56.836Z,2.60
2018-12-24T05:53:56.802Z,2.48
2018-12-24T05:54:56.767Z,2.42
2018-12-24T05:55:56.844Z,2.41
2018-12-24T05:56:56.695Z,2.36
2018-12-24T05:57:56.660Z,2.48
2018-12-24T05:58:56.625Z,2.43
2018-12-24T05:59:56.589Z,2.49
2018-12-24T06:00:56.555Z,2.38
2018-12-24T06:01:56.524Z,2.48
2018-12-24T06:02:56.482Z,2.53
2018-12-24T06:03:56.445Z,2.43
2018-12-24T06:04:56.412Z,2.46
2018-12-24T06:05:56.377Z,2.48
2018-12-24T06:06:56.342Z,2.46
2018-12-24T06:07:56.306Z,2.48
2018-12-24T06:08:56.271Z,2.53
2018-12-24T06:09:56.235Z,2.49
2018-12-24T06:10:56.199Z,2.53
2018-12-24T06:11:56.310Z,2.52
2018-12-24T06:12:56.129Z,2.46
2018-12-24T06:13:58.107Z,2.41
2018-12-24T06:14:56.058Z,2.46
2018-12-24T06:15:56.021Z,2.48
2018-12-24T06:16:55.988Z,2.43
2018-12-24T06:17:57.685Z,2.35
2018-12-24T06:18:55.916Z,2.48
2018-12-24T06:19:55.879Z,2.36
2018-12-24T06:20:55.847Z,2.27
2018-12-24T06:21:55.808Z,2.31
2018-12-24T06:22:55.774Z,2.25
2018-12-24T06:23:55.738Z,2.25
2018-12-24T06:24:55.700Z,2.31
2018-12-24T06:25:55.854Z,2.28
2018-12-24T06:26:55.630Z,2.24
2018-12-24T06:27:55.601Z,2.25
2018-12-24T06:28:55.559Z,2.34
2018-12-24T06:29:55.524Z,2.24
2018-12-24T06:30:55.489Z,2.34
2018-12-24T06:31:55.453Z,2.28
2018-12-24T06:32:55.417Z,2.25
2018-12-24T06:33:55.382Z,2.30
2018-12-24T06:34:55.346Z,2.18
2018-12-24T06:35:55.310Z,2.14
2018-12-24T06:36:55.275Z,2.17
2018-12-24T06:37:55.240Z,2.07
2018-12-24T06:38:55.203Z,1.98
2018-12-24T06:39:55.169Z,1.93
2018-12-24T06:40:55.130Z,1.84
2018-12-24T06:41:55.094Z,1.80
2018-12-24T06:42:55.059Z,1.80
2018-12-24T06:43:55.023Z,1.72
2018-12-24T06:44:54.986Z,1.65
2018-12-24T06:45:54.950Z,1.60
2018-12-24T06:46:54.915Z,1.55
2018-12-24T06:47:54.879Z,1.54
2018-12-24T06:48:54.843Z,1.45
2018-12-24T06:49:54.806Z,1.40
2018-12-24T06:50:54.771Z,1.41
2018-12-24T06:51:54.739Z,1.37
2018-12-24T06:52:54.701Z,1.29
2018-12-24T06:53:54.662Z,1.23
2018-12-24T06:54:54.627Z,1.29
2018-12-24T06:55:54.589Z,1.30
2018-12-24T06:56:54.555Z,1.32
2018-12-24T06:57:54.515Z,1.23
2018-12-24T06:58:54.479Z,1.20
2018-12-24T06:59:54.442Z,1.20
2018-12-24T07:00:54.410Z,1.26
2018-12-24T07:01:54.371Z,1.26
2018-12-24T07:02:54.333Z,1.23
2018-12-24T07:03:54.296Z,1.22
2018-12-24T07:04:54.261Z,1.15
2018-12-24T07:05:54.224Z,1.33
2018-12-24T07:06:54.188Z,1.23
2018-12-24T07:07:54.153Z,1.26
2018-12-24T07:08:54.115Z,1.29
2018-12-24T07:09:54.078Z,1.27
2018-12-24T07:10:54.044Z,1.37
2018-12-24T07:11:54.006Z,1.44
2018-12-24T07:12:53.969Z,1.37
2018-12-24T07:13:53.934Z,1.41
2018-12-24T07:14:53.900Z,1.44
2018-12-24T07:15:53.862Z,1.47
2018-12-24T07:16:53.826Z,1.54
2018-12-24T07:17:53.790Z,1.45
2018-12-24T07:18:53.754Z,1.47
2018-12-24T07:19:53.716Z,1.44
2018-12-24T07:20:53.680Z,1.48
2018-12-24T07:21:53.644Z,1.51
2018-12-24T07:22:53.608Z,1.52
2018-12-24T07:23:53.571Z,1.55
2018-12-24T07:24:53.536Z,1.54
2018-12-24T07:25:53.501Z,1.54
2018-12-24T07:26:53.464Z,1.55
2018-12-24T07:27:53.428Z,1.62
2018-12-24T07:28:59.001Z,1.58
2018-12-24T07:29:53.356Z,1.58
2018-12-24T07:30:53.328Z,1.60
2018-12-24T07:31:53.283Z,1.60
2018-12-24T07:32:53.247Z,1.59
2018-12-24T07:33:53.212Z,1.59
2018-12-24T07:34:53.177Z,1.55
2018-12-24T07:35:53.140Z,1.62
2018-12-24T07:36:53.103Z,1.62
2018-12-24T07:37:53.067Z,1.62
2018-12-24T07:38:53.031Z,1.59
2018-12-24T07:39:52.996Z,1.60
2018-12-24T07:40:52.960Z,1.58
2018-12-24T07:41:52.929Z,1.60
2018-12-24T07:42:52.889Z,1.69
2018-12-24T07:43:52.854Z,1.66
2018-12-24T07:44:52.818Z,1.70
2018-12-24T07:45:52.782Z,1.68
2018-12-24T07:46:52.746Z,1.63
2018-12-24T07:47:52.713Z,1.73
2018-12-24T07:48:52.672Z,1.70
2018-12-24T07:49:52.637Z,1.73
2018-12-24T07:50:52.601Z,1.73
2018-12-24T07:51:52.565Z,1.77
2018-12-24T07:52:52.528Z,1.79
2018-12-24T07:53:52.496Z,1.76
2018-12-24T07:54:52.456Z,1.72
2018-12-24T07:55:52.420Z,1.69
2018-12-24T07:56:52.384Z,1.76
2018-12-24T07:57:52.349Z,1.72
2018-12-24T07:58:52.316Z,1.81
2018-12-24T07:59:52.276Z,1.73
2018-12-24T08:00:52.242Z,1.80
2018-12-24T08:01:52.204Z,1.80
2018-12-24T08:02:52.168Z,1.83
2018-12-24T08:03:52.131Z,1.77
2018-12-24T08:04:52.097Z,1.81
2018-12-24T08:05:52.067Z,1.76
2018-12-24T08:06:52.025Z,1.76
2018-12-24T08:07:51.988Z,1.84
2018-12-24T08:08:51.952Z,1.81
2018-12-24T08:09:51.916Z,1.73
2018-12-24T08:10:51.982Z,1.86
2018-12-24T08:11:51.845Z,1.77
2018-12-24T08:12:51.807Z,1.77
2018-12-24T08:13:51.774Z,1.79
2018-12-24T08:14:51.737Z,1.81
2018-12-24T08:15:51.699Z,1.88
2018-12-24T08:16:51.665Z,1.86
2018-12-24T08:17:51.628Z,1.87
2018-12-24T08:18:51.592Z,1.86
2018-12-24T08:19:51.557Z,1.87
2018-12-24T08:20:51.524Z,1.88
2018-12-24T08:21:51.485Z,1.86
2018-12-24T08:22:51.447Z,1.95
2018-12-24T08:23:51.411Z,1.98
2018-12-24T08:24:51.376Z,1.93
2018-12-24T08:25:51.340Z,1.98
2018-12-24T08:26:53.638Z,1.95
2018-12-24T08:27:51.267Z,1.95
2018-12-24T08:28:51.232Z,1.98
2018-12-24T08:29:51.198Z,2.00
2018-12-24T08:30:51.161Z,1.98
2018-12-24T08:31:51.125Z,1.93
2018-12-24T08:32:51.089Z,1.98
2018-12-24T08:33:51.053Z,1.95
2018-12-24T08:34:51.019Z,2.09
2018-12-24T08:35:50.981Z,1.95
2018-12-24T08:36:50.946Z,2.14
2018-12-24T08:37:50.910Z,2.07
2018-12-24T08:38:50.875Z,2.05
2018-12-24T08:39:50.839Z,2.05
2018-12-24T08:40:50.803Z,2.05
2018-12-24T08:41:50.768Z,2.09
2018-12-24T08:42:50.733Z,2.06
2018-12-24T08:43:50.696Z,2.06
2018-12-24T08:44:50.663Z,2.10
2018-12-24T08:45:50.625Z,2.16
2018-12-24T08:46:50.591Z,2.09
2018-12-24T08:47:50.556Z,2.10
2018-12-24T08:48:50.517Z,2.14
2018-12-24T08:49:50.484Z,2.21
2018-12-24T08:50:50.448Z,2.14
2018-12-24T08:51:50.413Z,2.14
2018-12-24T08:52:50.376Z,2.20
2018-12-24T08:53:50.340Z,2.18
2018-12-24T08:54:50.306Z,2.14
2018-12-24T08:55:50.359Z,2.20
2018-12-24T08:56:50.235Z,2.23
2018-12-24T08:57:50.198Z,2.23
2018-12-24T08:58:50.164Z,2.21
2018-12-24T08:59:50.128Z,2.25
2018-12-24T09:00:50.091Z,2.24
2018-12-24T09:01:50.085Z,2.27
2018-12-24T09:02:50.024Z,2.23
2018-12-24T09:03:49.985Z,2.27
2018-12-24T09:04:49.951Z,2.24
2018-12-24T09:05:49.914Z,2.17
2018-12-24T09:06:49.881Z,2.24
2018-12-24T09:07:49.844Z,2.28
2018-12-24T09:08:49.808Z,2.25
2018-12-24T09:09:49.774Z,2.25
2018-12-24T09:10:49.736Z,2.23
2018-12-24T09:11:49.701Z,2.25
2018-12-24T09:12:49.666Z,2.21
2018-12-24T09:13:49.634Z,2.20
2018-12-24T09:14:50.364Z,2.25
2018-12-24T09:15:49.559Z,2.20
2018-12-24T09:16:49.524Z,2.23
2018-12-24T09:17:49.489Z,2.18
2018-12-24T09:18:49.455Z,2.21
2018-12-24T09:19:49.418Z,2.07
2018-12-24T09:20:52.745Z,2.23
2018-12-24T09:21:49.347Z,2.21
2018-12-24T09:22:49.312Z,2.20
2018-12-24T09:23:49.276Z,2.18
2018-12-24T09:24:49.241Z,2.27
2018-12-24T09:25:49.206Z,2.27
2018-12-24T09:26:49.171Z,2.28
2018-12-24T09:27:49.134Z,2.28
2018-12-24T09:28:49.101Z,2.30
2018-12-24T09:29:49.062Z,2.39
2018-12-24T09:30:49.028Z,2.45
2018-12-24T09:31:48.990Z,2.39
2018-12-24T09:32:48.958Z,2.39
2018-12-24T09:33:48.922Z,2.39
2018-12-24T09:34:48.886Z,2.41
2018-12-24T09:35:48.849Z,2.43
2018-12-24T09:36:48.815Z,2.38
2018-12-24T09:37:48.779Z,2.38
2018-12-24T09:38:48.743Z,2.41
2018-12-24T09:39:48.707Z,2.49
2018-12-24T09:40:48.679Z,2.61
2018-12-24T09:41:48.636Z,2.57
2018-12-24T09:42:48.602Z,2.53
2018-12-24T09:43:48.572Z,2.61
2018-12-24T09:44:48.530Z,2.57
2018-12-24T09:45:48.497Z,2.60
2018-12-24T09:46:48.461Z,2.45
2018-12-24T09:47:48.424Z,2.54
2018-12-24T09:48:48.389Z,2.59
2018-12-24T09:49:48.353Z,2.53
2018-12-24T09:50:48.319Z,2.57
2018-12-24T09:51:48.282Z,2.59
2018-12-24T09:52:48.248Z,2.48
2018-12-24T09:53:48.212Z,2.41
2018-12-24T09:54:48.185Z,2.52
2018-12-24T09:55:48.141Z,2.43
2018-12-24T09:56:48.107Z,2.34
2018-12-24T09:57:48.070Z,2.38
2018-12-24T09:58:48.036Z,2.36
2018-12-24T09:59:48.000Z,2.34
2018-12-24T10:00:47.965Z,2.35
2018-12-24T10:01:47.928Z,2.34
2018-12-24T10:02:47.895Z,2.42
2018-12-24T10:03:47.857Z,2.39
2018-12-24T10:04:47.822Z,2.42
2018-12-24T10:05:47.786Z,2.53
2018-12-24T10:06:47.751Z,2.46
2018-12-24T10:07:47.716Z,2.46
2018-12-24T10:08:47.680Z,2.35
2018-12-24T10:09:47.644Z,2.46
2018-12-24T10:10:47.609Z,2.38
2018-12-24T10:11:47.572Z,2.42
2018-12-24T10:12:47.538Z,2.48
2018-12-24T10:13:47.502Z,2.49
2018-12-24T10:14:47.467Z,2.52
2018-12-24T10:15:47.432Z,2.53
2018-12-24T10:16:47.395Z,2.57
2018-12-24T10:17:47.361Z,2.49
2018-12-24T10:18:47.324Z,2.52
2018-12-24T10:19:47.289Z,2.56
2018-12-24T10:20:47.253Z,2.61
2018-12-24T10:21:47.217Z,2.61
2018-12-24T10:22:47.183Z,2.66
2018-12-24T10:23:47.148Z,2.71
2018-12-24T10:24:47.110Z,2.72
2018-12-24T10:25:47.076Z,2.75
2018-12-24T10:26:47.045Z,2.82
2018-12-24T10:27:47.006Z,2.82
2018-12-24T10:28:46.968Z,2.89
2018-12-24T10:29:46.933Z,2.72
2018-12-24T10:30:46.901Z,2.81
2018-12-24T10:31:46.862Z,2.81
2018-12-24T10:32:46.827Z,2.92
2018-12-24T10:33:46.792Z,2.87
2018-12-24T10:34:46.847Z,2.87
2018-12-24T10:35:46.725Z,2.93
2018-12-24T10:36:46.688Z,3.02
2018-12-24T10:37:46.652Z,3.02
2018-12-24T10:38:46.617Z,3.08
2018-12-24T10:39:46.581Z,3.14
2018-12-24T10:40:46.545Z,3.05
2018-12-24T10:41:46.511Z,3.08
2018-12-24T10:42:46.474Z,3.11
2018-12-24T10:43:46.440Z,3.06
2018-12-24T10:44:46.405Z,3.17
2018-12-24T10:45:46.369Z,3.15
2018-12-24T10:46:46.334Z,3.17
2018-12-24T10:47:46.300Z,3.13
2018-12-24T10:48:46.651Z,3.15
2018-12-24T10:49:46.230Z,3.11
2018-12-24T10:50:46.195Z,3.17
2018-12-24T10:51:46.160Z,3.14
2018-12-24T10:52:46.124Z,3.14
2018-12-24T10:53:46.092Z,3.14
2018-12-24T10:54:46.055Z,3.10
2018-12-24T10:55:46.019Z,3.05
2018-12-24T10:56:45.986Z,3.15
2018-12-24T10:57:45.948Z,3.08
2018-12-24T10:58:45.915Z,3.11
2018-12-24T10:59:45.879Z,3.14
2018-12-24T11:00:45.845Z,3.08
2018-12-24T11:01:45.810Z,3.03
2018-12-24T11:02:45.775Z,3.05
2018-12-24T11:03:45.739Z,3.03
2018-12-24T11:04:45.703Z,3.13
2018-12-24T11:05:45.679Z,3.11
2018-12-24T11:06:45.638Z,3.17
2018-12-24T11:07:45.599Z,3.20
2018-12-24T11:08:45.564Z,3.26
2018-12-24T11:09:45.530Z,3.23
2018-12-24T11:10:46.734Z,3.11
2018-12-24T11:11:45.459Z,3.28
2018-12-24T11:12:45.424Z,3.21
2018-12-24T11:13:45.389Z,3.24
2018-12-24T11:14:45.354Z,3.24
2018-12-24T11:15:45.319Z,3.20
2018-12-24T11:16:45.284Z,3.21
2018-12-24T11:17:45.249Z,3.23
2018-12-24T11:18:45.214Z,3.28
2018-12-24T11:19:45.177Z,3.32
2018-12-24T11:20:45.145Z,3.24
2018-12-24T11:21:45.108Z,3.23
2018-12-24T11:22:45.074Z,3.21
2018-12-24T11:23:45.038Z,3.21
2018-12-24T11:24:45.001Z,3.24
2018-12-24T11:25:44.967Z,3.18
2018-12-24T11:26:44.932Z,3.23
2018-12-24T11:27:44.898Z,3.33
2018-12-24T11:28:44.862Z,3.36
2018-12-24T11:29:44.827Z,3.43
2018-12-24T11:30:44.794Z,3.39
2018-12-24T11:31:44.756Z,3.36
2018-12-24T11:32:44.725Z,3.36
2018-12-24T11:33:44.688Z,3.39
2018-12-24T11:34:44.652Z,3.32
2018-12-24T11:35:44.617Z,3.26
2018-12-24T11:36:44.581Z,3.20
2018-12-24T11:37:44.549Z,3.17
2018-12-24T11:38:44.513Z,3.13
2018-12-24T11:39:44.476Z,3.17
2018-12-24T11:40:44.443Z,3.13
2018-12-24T11:41:44.407Z,3.17
2018-12-24T11:42:44.373Z,3.11
2018-12-24T11:43:44.337Z,3.14
2018-12-24T11:44:44.306Z,3.23
2018-12-24T11:45:44.268Z,3.26
2018-12-24T11:46:44.232Z,3.10
2018-12-24T11:47:44.196Z,3.23
2018-12-24T11:48:44.162Z,3.21
2018-12-24T11:49:44.132Z,3.32
2018-12-24T11:50:44.092Z,3.33
2018-12-24T11:51:44.057Z,3.48
2018-12-24T11:52:44.021Z,3.45
2018-12-24T11:53:43.987Z,3.39
2018-12-24T11:54:43.952Z,3.43
2018-12-24T11:55:43.917Z,3.43
2018-12-24T11:56:43.882Z,3.55
2018-12-24T11:57:43.847Z,3.60
2018-12-24T11:58:43.811Z,3.65
2018-12-24T11:59:43.776Z,3.60
2018-12-24T12:00:43.742Z,3.54
2018-12-24T12:01:43.707Z,3.58
2018-12-24T12:02:43.672Z,3.55
2018-12-24T12:03:43.636Z,3.57
2018-12-24T12:04:43.600Z,3.60
2018-12-24T12:05:43.568Z,3.61
2018-12-24T12:06:43.533Z,3.61
2018-12-24T12:07:43.499Z,3.68
2018-12-24T12:08:43.462Z,3.78
2018-12-24T12:09:43.428Z,3.69
2018-12-24T12:10:43.394Z,3.75
2018-12-24T12:11:43.356Z,3.78
2018-12-24T12:12:43.335Z,3.73
2018-12-24T12:13:43.290Z,3.75
2018-12-24T12:14:43.254Z,3.79
2018-12-24T12:15:43.224Z,3.75
2018-12-24T12:16:43.184Z,3.69
2018-12-24T12:17:43.150Z,3.73
2018-12-24T12:18:43.136Z,3.72
2018-12-24T12:19:43.079Z,3.78
2018-12-24T12:20:43.044Z,3.75
2018-12-24T12:21:43.011Z,3.70
2018-12-24T12:22:42.978Z,3.75
2018-12-24T12:23:42.941Z,3.70
2018-12-24T12:24:42.905Z,3.73
2018-12-24T12:25:42.872Z,3.70
2018-12-24T12:26:42.843Z,3.62
2018-12-24T12:27:42.802Z,3.55
2018-12-24T12:28:42.767Z,3.55
2018-12-24T12:29:42.732Z,3.72
2018-12-24T12:30:42.697Z,3.60
2018-12-24T12:31:42.663Z,3.61
2018-12-24T12:32:42.628Z,3.57
2018-12-24T12:33:42.593Z,3.61
2018-12-24T12:34:42.561Z,3.57
2018-12-24T12:35:42.524Z,3.60
2018-12-24T12:36:42.487Z,3.62
2018-12-24T12:37:42.455Z,3.68
2018-12-24T12:38:42.418Z,3.72
2018-12-24T12:39:42.384Z,3.61
2018-12-24T12:40:42.352Z,3.70
2018-12-24T12:41:42.314Z,3.51
2018-12-24T12:42:42.280Z,3.69
2018-12-24T12:43:42.242Z,3.58
2018-12-24T12:44:42.209Z,3.58
2018-12-24T12:45:42.174Z,3.62
2018-12-24T12:46:42.139Z,3.60
2018-12-24T12:47:42.103Z,3.65
2018-12-24T12:48:42.071Z,3.72
2018-12-24T12:49:42.034Z,3.72
2018-12-24T12:50:42.001Z,3.61
2018-12-24T12:51:41.964Z,3.72
2018-12-24T12:52:41.929Z,3.62
2018-12-24T12:53:41.894Z,3.68
2018-12-24T12:54:41.860Z,3.61
2018-12-24T12:55:41.826Z,3.62
2018-12-24T12:56:41.790Z,3.72
2018-12-24T12:57:41.755Z,3.65
2018-12-24T12:58:41.721Z,3.58
2018-12-24T12:59:41.684Z,3.61
2018-12-24T13:00:41.654Z,3.66
2018-12-24T13:01:41.618Z,3.66
2018-12-24T13:02:41.581Z,3.72
2018-12-24T13:03:41.546Z,3.73
2018-12-24T13:04:41.512Z,3.73
2018-12-24T13:05:41.476Z,3.72
2018-12-24T13:06:41.441Z,3.78
2018-12-24T13:07:41.405Z,3.73
2018-12-24T13:08:41.371Z,3.80
2018-12-24T13:09:41.337Z,3.80
2018-12-24T13:10:41.303Z,4.14
2018-12-24T13:11:41.266Z,4.70
2018-12-24T13:12:41.231Z,5.21
2018-12-24T13:13:41.198Z,5.64
2018-12-24T13:14:41.163Z,6.03
2018-12-24T13:15:41.127Z,6.43
2018-12-24T13:16:41.093Z,6.62
2018-12-24T13:17:41.057Z,6.59